»·PEaware :: ACA57 OMDB-CYYZ

ACA57 :: OMDB-CYYZ

FLIGHT INFORMATION

Flight Status: Arrived
Operator:
Air Canada
More flights by this operator :: More flights under this callsign
Pilot: Anonymous 14085 (14085)
Aircraft: AIRBUS A330
(A330)
More flights by this aircraft type
Origin: OMDB Dubai Intl
United Arab Emirates
Destination: CYYZ Toronto/Pearson Intl
Canada
More flights between these airports :: More routes between these airports
Route: DAVM1F DAVMO Y601 GABKO M317 RADEB M318 ASMUK ULDUS N23 PIROG N39 BAKUV N72 BISNA/K0872F320 G821 ALABO IWV TE B231 UK R11 TU R58 NOTAR/N0463F320 P855 TOGMI Z265 TIGBA Z277 ABADA 6500E/M078F320 6510N 6520N 6430N 6340N 6150N PRAWN/N0454F320 YDP N706A MT YXI IMEBA3
File this flight plan on PilotEdge
Remarks: PBN / A1B1C1D1O1S2 DOF / 170610 REG / N315SB EET / OIIX0010 UBBA0158 URRV0232 UUWV0346 ULLL0502 EETT0522 EFIN0544 ESAA0609 ENOR0639 ENOB0705 BIRD0724 CZQX0937 BGGL0942 CZQX1040 CZUL1158 CZYZ1333 OPR / ACA RMK / TCAS SIMBRIEF
Altitude:
(Current/Filed)
32,000ft
Speed:
(Current/Filed)
487kts
Departed: 09-Jun-17 09:49 PM
Arrived: 10-Jun-17 11:15 AM
Distance/Time
Traveled:
5979nm/13:26
Distance/Time
To Go:
Arrived

Flight Plot

Page will automatically refresh every two minutes.

Flight plan parsing failed; only flown route is shown


Map Options




Map Legend


Flown Route
Filed Route
Departure Airport
Arrival Airport
Navaid (VOR, NDB)
Fix

Horizontal Profiles

Position Reports

Time Latitude Longitude Heading Altitude Ground
Speed
09-Jun-17 21:22 25.254731 55.353022 211 17ft 0kts
09-Jun-17 21:23 25.254731 55.353022 211 17ft 0kts
09-Jun-17 21:24 25.254731 55.353022 211 16ft 0kts
09-Jun-17 21:25 25.254731 55.353022 211 16ft 0kts
09-Jun-17 21:26 25.254731 55.353022 211 16ft 0kts
09-Jun-17 21:27 25.254731 55.353022 211 16ft 0kts
09-Jun-17 21:28 25.254731 55.353022 211 16ft 0kts
09-Jun-17 21:29 25.254731 55.353022 211 16ft 0kts
09-Jun-17 21:30 25.254731 55.353022 211 16ft 0kts
09-Jun-17 21:31 25.254731 55.353022 211 16ft 0kts
09-Jun-17 21:32 25.254731 55.353022 211 16ft 0kts
09-Jun-17 21:33 25.254731 55.353022 211 16ft 0kts
09-Jun-17 21:34 25.254731 55.353022 211 16ft 0kts
09-Jun-17 21:35 25.254731 55.353022 211 16ft 0kts
09-Jun-17 21:36 25.254731 55.353022 211 16ft 0kts
09-Jun-17 21:37 25.254731 55.353022 211 16ft 0kts
09-Jun-17 21:38 25.254731 55.353022 211 16ft 0kts
09-Jun-17 21:39 25.254731 55.353022 211 16ft 0kts
09-Jun-17 21:40 25.254731 55.353022 211 16ft 0kts
09-Jun-17 21:41 25.254731 55.353022 211 16ft 0kts
09-Jun-17 21:42 25.254731 55.353022 211 16ft 0kts
09-Jun-17 21:43 25.255397 55.353550 225 15ft 0kts
09-Jun-17 21:44 25.255773 55.353719 149 14ft 0kts
09-Jun-17 21:45 25.255773 55.353720 149 14ft 0kts
09-Jun-17 21:46 25.255089 55.354661 109 16ft 8kts
09-Jun-17 21:47 25.254841 55.357600 34 18ft 8kts
09-Jun-17 21:48 25.256284 55.359442 125 16ft 0kts
09-Jun-17 21:49 25.256284 55.359442 125 16ft 0kts
09-Jun-17 21:50 25.256177 55.359614 124 17ft 14kts
09-Jun-17 21:51 25.243100 55.383175 122 36ft 165kts
09-Jun-17 21:52 25.217966 55.428784 124 1508ft 187kts
09-Jun-17 21:53 25.210480 55.492713 67 2339ft 255kts
09-Jun-17 21:54 25.234825 55.572965 78 3722ft 289kts
09-Jun-17 21:55 25.264798 55.650193 22 5874ft 278kts
09-Jun-17 21:56 25.339557 55.676502 7 7508ft 294kts
09-Jun-17 21:57 25.422097 55.691234 9 9321ft 305kts
09-Jun-17 21:58 25.499537 55.659230 326 10720ft 329kts
09-Jun-17 21:59 25.577458 55.597403 334 11726ft 366kts
09-Jun-17 22:00 25.680680 55.603113 13 12946ft 389kts
09-Jun-17 22:01 25.786578 55.630785 14 14871ft 396kts
09-Jun-17 22:02 25.888741 55.673666 31 16598ft 403kts
09-Jun-17 22:03 25.984772 55.740055 32 18233ft 411kts
09-Jun-17 22:04 26.086722 55.792930 1 19775ft 418kts
09-Jun-17 22:05 26.202283 55.791290 9 21251ft 423kts
09-Jun-17 22:06 26.318632 55.814660 10 22638ft 428kts
09-Jun-17 22:07 26.435818 55.839066 10 23903ft 433kts
09-Jun-17 22:08 26.554831 55.863791 12 24829ft 443kts
09-Jun-17 22:09 26.677462 55.889613 13 25458ft 458kts
09-Jun-17 22:10 26.804432 55.912523 9 26000ft 475kts
09-Jun-17 22:11 26.937407 55.929244 8 26551ft 490kts
09-Jun-17 22:12 27.073343 55.945923 9 27803ft 486kts
09-Jun-17 22:13 27.204323 55.962440 6 29414ft 470kts
09-Jun-17 22:14 27.334108 55.978541 4 29900ft 478kts
09-Jun-17 22:15 27.464923 55.994668 4 30698ft 477kts
09-Jun-17 22:16 27.596303 56.010867 4 31453ft 475kts
09-Jun-17 22:17 27.725994 56.026893 4 31688ft 473kts
09-Jun-17 22:18 27.856531 56.043083 4 31705ft 473kts
09-Jun-17 22:19 27.987549 56.059352 4 31700ft 474kts
09-Jun-17 22:20 28.117546 56.075538 4 31693ft 474kts
09-Jun-17 22:21 28.242268 56.044757 337 31703ft 468kts
09-Jun-17 22:22 28.362428 55.990494 336 31703ft 467kts
09-Jun-17 22:23 28.482335 55.935324 336 31692ft 467kts
09-Jun-17 22:24 28.602438 55.879884 336 31699ft 467kts
09-Jun-17 22:25 28.722426 55.824359 336 31701ft 466kts
09-Jun-17 22:26 28.842178 55.768809 336 31793ft 467kts
09-Jun-17 22:27 28.962311 55.712942 336 32044ft 467kts
09-Jun-17 22:28 29.082431 55.656937 336 32106ft 466kts
09-Jun-17 22:29 29.201622 55.601295 336 32103ft 467kts
09-Jun-17 22:30 29.321547 55.545105 336 32184ft 468kts
09-Jun-17 22:31 29.440237 55.489355 336 32902ft 465kts
09-Jun-17 22:32 29.559438 55.433213 336 33492ft 463kts
09-Jun-17 22:33 29.678174 55.377151 336 33987ft 462kts
09-Jun-17 22:34 29.796106 55.321202 335 34097ft 462kts
09-Jun-17 22:35 29.914228 55.265123 335 34099ft 461kts
09-Jun-17 22:36 30.032602 55.208800 335 34112ft 461kts
09-Jun-17 22:37 30.150342 55.152687 335 34098ft 461kts
09-Jun-17 22:38 30.268277 55.096298 335 34103ft 461kts
09-Jun-17 22:39 30.386566 55.039576 335 34108ft 461kts
09-Jun-17 22:40 30.504483 54.982884 335 33992ft 459kts
09-Jun-17 22:41 30.622233 54.926121 335 33991ft 461kts
09-Jun-17 22:42 30.740400 54.869006 335 34001ft 460kts
09-Jun-17 22:43 30.857986 54.812020 335 33992ft 460kts
09-Jun-17 22:44 30.975742 54.754800 335 33994ft 460kts
09-Jun-17 22:45 31.093621 54.697367 335 33998ft 460kts
09-Jun-17 22:46 31.209716 54.640725 335 33993ft 460kts
09-Jun-17 22:47 31.327077 54.583241 335 33995ft 460kts
09-Jun-17 22:48 31.444909 54.525365 335 33996ft 460kts
09-Jun-17 22:49 31.562300 54.467547 335 33994ft 460kts
09-Jun-17 22:50 31.679889 54.409472 335 33994ft 460kts
09-Jun-17 22:51 31.797331 54.351310 335 33996ft 460kts
09-Jun-17 22:52 31.914260 54.293110 334 33996ft 459kts
09-Jun-17 22:53 32.031496 54.234699 334 33996ft 457kts
09-Jun-17 22:54 32.148424 54.176387 334 33994ft 459kts
09-Jun-17 22:55 32.265325 54.117866 334 33996ft 458kts
09-Jun-17 22:56 32.382032 54.059260 334 33997ft 458kts
09-Jun-17 22:57 32.499153 54.000280 334 33993ft 458kts
09-Jun-17 22:58 32.615868 53.941335 334 33995ft 458kts
09-Jun-17 22:59 32.732814 53.882106 334 33997ft 457kts
09-Jun-17 23:00 32.849547 53.822789 334 33995ft 461kts
09-Jun-17 23:01 32.966796 53.763100 334 33997ft 460kts
09-Jun-17 23:02 33.084205 53.703111 334 33993ft 460kts
09-Jun-17 23:03 33.201021 53.643337 334 33995ft 460kts
09-Jun-17 23:04 33.318019 53.583228 334 34060ft 459kts
09-Jun-17 23:05 33.435410 53.522684 334 34037ft 460kts
09-Jun-17 23:06 33.552602 53.462153 334 34054ft 460kts
09-Jun-17 23:07 33.669818 53.401384 334 33977ft 459kts
09-Jun-17 23:08 33.785559 53.341187 333 33936ft 461kts
09-Jun-17 23:09 33.902648 53.280006 333 33961ft 460kts
09-Jun-17 23:10 34.019608 53.218833 333 33970ft 460kts
09-Jun-17 23:11 34.135934 53.157839 333 33971ft 460kts
09-Jun-17 23:12 34.252741 53.096409 333 33965ft 460kts
09-Jun-17 23:13 34.369637 53.034710 333 33970ft 460kts
09-Jun-17 23:14 34.486667 52.972745 333 33969ft 460kts
09-Jun-17 23:15 34.603507 52.910696 333 33968ft 460kts
09-Jun-17 23:16 34.720608 52.848314 333 33968ft 460kts
09-Jun-17 23:17 34.837465 52.785872 333 33968ft 460kts
09-Jun-17 23:18 34.954109 52.723341 333 33968ft 460kts
09-Jun-17 23:19 35.071050 52.660454 333 33968ft 460kts
09-Jun-17 23:20 35.186897 52.598050 333 33966ft 460kts
09-Jun-17 23:21 35.303616 52.534902 333 33969ft 460kts
09-Jun-17 23:22 35.420463 52.471476 333 33968ft 460kts
09-Jun-17 23:23 35.537177 52.407917 333 33966ft 460kts
09-Jun-17 23:24 35.652409 52.344963 332 33990ft 461kts
09-Jun-17 23:25 35.769281 52.280782 332 33995ft 460kts
09-Jun-17 23:26 35.885690 52.216787 332 33864ft 458kts
09-Jun-17 23:27 36.002018 52.152682 332 33995ft 462kts
09-Jun-17 23:28 36.117894 52.088508 332 33868ft 458kts
09-Jun-17 23:29 36.234590 52.023795 332 33854ft 459kts
09-Jun-17 23:30 36.350975 51.958966 332 33861ft 460kts
09-Jun-17 23:31 36.467262 51.893981 332 33863ft 460kts
09-Jun-17 23:32 36.583463 51.828828 332 33857ft 460kts
09-Jun-17 23:33 36.699657 51.763464 332 33861ft 460kts
09-Jun-17 23:34 36.796504 51.708815 332 33858ft 460kts
09-Jun-17 23:35 36.912869 51.642919 332 33860ft 461kts
09-Jun-17 23:36 37.048580 51.565857 332 33858ft 460kts
09-Jun-17 23:37 37.145203 51.510853 332 33857ft 460kts
09-Jun-17 23:38 37.281010 51.433208 332 33859ft 460kts
09-Jun-17 23:39 37.377847 51.377634 332 33861ft 460kts
09-Jun-17 23:40 37.511412 51.300599 331 33861ft 460kts
09-Jun-17 23:41 37.608106 51.244713 331 33861ft 460kts
09-Jun-17 23:42 37.724421 51.177263 331 33860ft 462kts
09-Jun-17 23:43 37.840417 51.109823 331 33860ft 461kts
09-Jun-17 23:44 37.956495 51.042076 331 33860ft 461kts
09-Jun-17 23:45 38.076802 50.988035 339 33863ft 465kts
09-Jun-17 23:46 38.221384 50.933550 339 33885ft 466kts
09-Jun-17 23:47 38.324513 50.894630 339 33891ft 466kts
09-Jun-17 23:48 38.448326 50.847752 339 33886ft 466kts
09-Jun-17 23:49 38.593083 50.792728 339 33886ft 466kts
09-Jun-17 23:50 38.696581 50.753252 339 33887ft 467kts
09-Jun-17 23:51 38.820921 50.705665 339 33887ft 470kts
09-Jun-17 23:52 38.944471 50.657901 338 33887ft 468kts
09-Jun-17 23:53 39.068919 50.609376 338 33886ft 467kts
09-Jun-17 23:54 39.192164 50.561210 338 33887ft 468kts
09-Jun-17 23:55 39.316397 50.512419 338 33887ft 468kts
09-Jun-17 23:56 39.439558 50.463880 338 33887ft 463kts
09-Jun-17 23:57 39.563099 50.414982 338 33885ft 464kts
09-Jun-17 23:58 39.686401 50.366001 338 33886ft 465kts
09-Jun-17 23:59 39.808899 50.317046 337 33888ft 464kts
10-Jun-17 00:00 39.931512 50.268191 337 33887ft 464kts
10-Jun-17 00:01 40.054502 50.219076 337 33888ft 464kts
10-Jun-17 00:02 40.177605 50.169796 337 33887ft 464kts
10-Jun-17 00:03 40.300579 50.120323 337 33887ft 464kts
10-Jun-17 00:04 40.423494 50.070678 337 33888ft 464kts
10-Jun-17 00:05 40.545265 50.020197 337 33887ft 464kts
10-Jun-17 00:06 40.668026 49.968390 337 33887ft 464kts
10-Jun-17 00:07 40.790315 49.916569 337 33887ft 464kts
10-Jun-17 00:08 40.912415 49.864627 337 33887ft 463kts
10-Jun-17 00:09 41.034610 49.812442 337 33887ft 463kts
10-Jun-17 00:10 41.154395 49.760887 336 33887ft 463kts
10-Jun-17 00:11 41.276265 49.707816 336 33887ft 463kts
10-Jun-17 00:12 41.398295 49.654436 336 33886ft 463kts
10-Jun-17 00:13 41.519912 49.601024 336 33887ft 462kts
10-Jun-17 00:14 41.641993 49.547189 336 33885ft 462kts
10-Jun-17 00:15 41.763474 49.493414 336 33887ft 462kts
10-Jun-17 00:16 41.884920 49.439438 336 33887ft 462kts
10-Jun-17 00:17 42.006453 49.385198 336 33821ft 463kts
10-Jun-17 00:18 42.127119 49.331072 336 33838ft 461kts
10-Jun-17 00:19 42.247581 49.277249 337 33834ft 462kts
10-Jun-17 00:20 42.370161 49.225257 337 33832ft 462kts
10-Jun-17 00:21 42.491829 49.173398 337 33835ft 461kts
10-Jun-17 00:22 42.613733 49.121231 337 33833ft 461kts
10-Jun-17 00:23 42.735648 49.068842 337 33833ft 461kts
10-Jun-17 00:24 42.857519 49.016257 337 33834ft 461kts
10-Jun-17 00:25 42.979370 48.963462 337 33833ft 461kts
10-Jun-17 00:26 43.101102 48.910499 337 33832ft 461kts
10-Jun-17 00:27 43.219020 48.850041 322 33848ft 449kts
10-Jun-17 00:28 43.323377 48.756775 322 33831ft 449kts
10-Jun-17 00:29 43.426930 48.661867 321 33831ft 449kts
10-Jun-17 00:30 43.530520 48.566392 321 33835ft 449kts
10-Jun-17 00:31 43.633987 48.470624 321 33832ft 449kts
10-Jun-17 00:32 43.737163 48.374721 321 33830ft 449kts
10-Jun-17 00:33 43.840140 48.278476 321 33834ft 448kts
10-Jun-17 00:34 43.942841 48.182188 321 33834ft 448kts
10-Jun-17 00:35 44.045838 48.085225 321 33833ft 448kts
10-Jun-17 00:36 44.148388 47.988401 321 33834ft 447kts
10-Jun-17 00:37 44.251073 47.890934 321 33834ft 447kts
10-Jun-17 00:38 44.353525 47.793243 321 33832ft 447kts
10-Jun-17 00:39 44.455736 47.695371 321 34004ft 446kts
10-Jun-17 00:40 44.557770 47.597228 321 33993ft 445kts
10-Jun-17 00:41 44.659776 47.498682 321 33992ft 447kts
10-Jun-17 00:42 44.761742 47.399741 321 33997ft 445kts
10-Jun-17 00:43 44.863171 47.300795 320 33996ft 445kts
10-Jun-17 00:44 44.964319 47.201783 320 33993ft 445kts
10-Jun-17 00:45 45.065731 47.102094 320 33997ft 445kts
10-Jun-17 00:46 45.166848 47.002398 320 33997ft 445kts
10-Jun-17 00:47 45.267939 46.902165 320 33994ft 445kts
10-Jun-17 00:48 45.369144 46.801355 320 33995ft 445kts
10-Jun-17 00:49 45.470006 46.700437 320 33996ft 445kts
10-Jun-17 00:50 45.570850 46.599067 320 33994ft 444kts
10-Jun-17 00:51 45.671563 46.497408 320 33994ft 444kts
10-Jun-17 00:52 45.772167 46.395386 320 33994ft 444kts
10-Jun-17 00:53 45.872059 46.293507 319 33998ft 443kts
10-Jun-17 00:54 45.972240 46.190978 319 33995ft 444kts
10-Jun-17 00:55 46.072391 46.088028 319 33995ft 443kts
10-Jun-17 00:56 46.172646 45.984655 319 34012ft 443kts
10-Jun-17 00:57 46.272451 45.881144 319 34078ft 442kts
10-Jun-17 00:58 46.371952 45.777448 319 34077ft 442kts
10-Jun-17 00:59 46.471728 45.672947 320 34077ft 449kts
10-Jun-17 01:00 46.573970 45.565481 320 34085ft 456kts
10-Jun-17 01:01 46.676318 45.457264 320 34076ft 459kts
10-Jun-17 01:02 46.778220 45.349069 319 34073ft 457kts
10-Jun-17 01:03 46.880294 45.240030 319 34079ft 456kts
10-Jun-17 01:04 46.982717 45.130207 319 34078ft 456kts
10-Jun-17 01:05 47.084698 45.020332 319 34075ft 457kts
10-Jun-17 01:06 47.186102 44.910718 319 34077ft 457kts
10-Jun-17 01:07 47.288398 44.799432 319 34076ft 457kts
10-Jun-17 01:08 47.389797 44.688540 319 34084ft 459kts
10-Jun-17 01:09 47.491612 44.576723 319 33998ft 456kts
10-Jun-17 01:10 47.593413 44.464316 319 33992ft 457kts
10-Jun-17 01:11 47.695114 44.351461 319 33994ft 458kts
10-Jun-17 01:12 47.793200 44.241960 318 33998ft 457kts
10-Jun-17 01:13 47.894659 44.128261 318 33995ft 457kts
10-Jun-17 01:14 47.996129 44.013981 318 33995ft 457kts
10-Jun-17 01:15 48.096584 43.900252 318 34001ft 460kts
10-Jun-17 01:16 48.197582 43.785552 318 33997ft 457kts
10-Jun-17 01:17 48.298674 43.669969 318 33992ft 458kts
10-Jun-17 01:18 48.399559 43.554018 318 33995ft 458kts
10-Jun-17 01:19 48.500567 43.437334 318 33996ft 458kts
10-Jun-17 01:20 48.601010 43.320644 317 33996ft 458kts
10-Jun-17 01:21 48.701501 43.203279 318 33996ft 458kts
10-Jun-17 01:22 48.801635 43.085885 318 33986ft 453kts
10-Jun-17 01:23 48.902032 42.967391 318 34003ft 460kts
10-Jun-17 01:24 49.002295 42.848527 318 33995ft 459kts
10-Jun-17 01:25 49.102232 42.729433 318 33993ft 459kts
10-Jun-17 01:26 49.202281 42.609756 318 33997ft 459kts
10-Jun-17 01:27 49.302345 42.489255 318 33995ft 460kts
10-Jun-17 01:28 49.402520 42.367955 318 33994ft 459kts
10-Jun-17 01:29 49.502134 42.246569 317 33998ft 459kts
10-Jun-17 01:30 49.601865 42.124492 317 33987ft 463kts
10-Jun-17 01:31 49.701602 42.001779 317 34000ft 461kts
10-Jun-17 01:32 49.801707 41.877941 317 33997ft 461kts
10-Jun-17 01:33 49.902673 41.752300 317 33995ft 476kts
10-Jun-17 01:34 50.005992 41.623111 317 33995ft 477kts
10-Jun-17 01:35 50.108444 41.494218 317 33996ft 478kts
10-Jun-17 01:36 50.211867 41.363546 317 33995ft 478kts
10-Jun-17 01:37 50.312252 41.235549 317 33994ft 477kts
10-Jun-17 01:38 50.415193 41.103961 317 33994ft 477kts
10-Jun-17 01:39 50.517585 40.972160 317 33996ft 478kts
10-Jun-17 01:40 50.620046 40.839512 317 33997ft 477kts
10-Jun-17 01:41 50.721744 40.707082 317 33995ft 477kts
10-Jun-17 01:42 50.823814 40.573394 317 33995ft 477kts
10-Jun-17 01:43 50.925558 40.439345 317 33995ft 477kts
10-Jun-17 01:44 51.026597 40.305367 316 33996ft 477kts
10-Jun-17 01:45 51.125946 40.172961 316 33995ft 477kts
10-Jun-17 01:46 51.226978 40.037607 316 33995ft 477kts
10-Jun-17 01:47 51.328156 39.901114 317 33996ft 477kts
10-Jun-17 01:48 51.428977 39.764338 316 33995ft 477kts
10-Jun-17 01:49 51.529587 39.626988 316 33994ft 477kts
10-Jun-17 01:50 51.630311 39.488657 316 33995ft 477kts
10-Jun-17 01:51 51.730640 39.350032 316 33996ft 477kts
10-Jun-17 01:52 51.824466 39.204413 300 34005ft 469kts
10-Jun-17 01:53 51.891437 39.024054 296 33995ft 467kts
10-Jun-17 01:54 51.955380 38.841279 296 33994ft 468kts
10-Jun-17 01:55 52.019002 38.657646 296 33997ft 468kts
10-Jun-17 01:56 52.082200 38.473879 296 33996ft 468kts
10-Jun-17 01:57 52.146921 38.293618 310 33982ft 472kts
10-Jun-17 01:58 52.260174 38.179947 329 33999ft 482kts
10-Jun-17 01:59 52.379150 38.080512 330 33995ft 483kts
10-Jun-17 02:00 52.498282 37.981029 330 33995ft 483kts
10-Jun-17 02:01 52.617376 37.880988 330 33996ft 482kts
10-Jun-17 02:02 52.736651 37.780174 330 33996ft 482kts
10-Jun-17 02:03 52.855379 37.679201 330 33996ft 482kts
10-Jun-17 02:04 52.974215 37.577508 330 33995ft 482kts
10-Jun-17 02:05 53.092885 37.475283 330 34089ft 483kts
10-Jun-17 02:06 53.211031 37.373080 330 34074ft 482kts
10-Jun-17 02:07 53.329094 37.270018 329 34071ft 482kts
10-Jun-17 02:08 53.447577 37.166047 329 34080ft 482kts
10-Jun-17 02:09 53.564867 37.060757 322 34070ft 479kts
10-Jun-17 02:10 53.664397 36.914380 315 34081ft 476kts
10-Jun-17 02:11 53.761448 36.764188 314 34078ft 476kts
10-Jun-17 02:12 53.858656 36.612439 315 34074ft 476kts
10-Jun-17 02:13 53.955555 36.460188 315 34077ft 476kts
10-Jun-17 02:14 54.051635 36.308162 314 34078ft 476kts
10-Jun-17 02:15 54.145470 36.158888 314 34076ft 476kts
10-Jun-17 02:16 54.241315 36.005331 314 34077ft 476kts
10-Jun-17 02:17 54.338104 35.852339 314 34076ft 476kts
10-Jun-17 02:18 54.434979 35.698616 314 34075ft 476kts
10-Jun-17 02:19 54.531480 35.544635 315 34076ft 476kts
10-Jun-17 02:20 54.629338 35.391578 315 34077ft 476kts
10-Jun-17 02:21 54.725763 35.239539 314 34076ft 476kts
10-Jun-17 02:22 54.813735 35.069172 308 34077ft 473kts
10-Jun-17 02:23 54.899726 34.896945 308 34075ft 474kts
10-Jun-17 02:24 54.985457 34.723923 308 34078ft 473kts
10-Jun-17 02:25 55.071511 34.552147 309 34078ft 474kts
10-Jun-17 02:26 55.157538 34.380410 308 34075ft 473kts
10-Jun-17 02:27 55.242129 34.206123 307 34075ft 473kts
10-Jun-17 02:28 55.326781 34.030592 307 34077ft 473kts
10-Jun-17 02:29 55.411111 33.854501 307 34077ft 473kts
10-Jun-17 02:30 55.495929 33.679443 308 34075ft 473kts
10-Jun-17 02:31 55.581734 33.504148 308 34076ft 473kts
10-Jun-17 02:32 55.666886 33.328976 307 34078ft 473kts
10-Jun-17 02:33 55.752102 33.152285 307 34076ft 473kts
10-Jun-17 02:34 55.837287 32.974471 307 34076ft 472kts
10-Jun-17 02:35 55.914307 32.788555 302 34075ft 470kts
10-Jun-17 02:36 55.989725 32.598621 302 34077ft 470kts
10-Jun-17 02:37 56.064930 32.407688 302 34078ft 470kts
10-Jun-17 02:38 56.138942 32.218529 301 33811ft 469kts
10-Jun-17 02:39 56.211837 32.025730 300 33809ft 470kts
10-Jun-17 02:40 56.283205 31.830295 300 33805ft 469kts
10-Jun-17 02:41 56.354370 31.633702 300 33805ft 469kts
10-Jun-17 02:42 56.424216 31.439184 300 33807ft 469kts
10-Jun-17 02:43 56.494596 31.241475 299 33807ft 468kts
10-Jun-17 02:44 56.566847 31.047555 306 33812ft 472kts
10-Jun-17 02:45 56.651002 30.865082 306 33803ft 472kts
10-Jun-17 02:46 56.732583 30.680689 300 33809ft 469kts
10-Jun-17 02:47 56.805859 30.483955 301 33806ft 469kts
10-Jun-17 02:48 56.878629 30.287048 300 33805ft 469kts
10-Jun-17 02:49 56.950246 30.091715 299 33803ft 461kts
10-Jun-17 02:50 57.021652 29.895313 299 33808ft 463kts
10-Jun-17 02:51 57.080693 29.731712 299 33806ft 464kts
10-Jun-17 02:52 57.163290 29.501379 299 33804ft 464kts
10-Jun-17 02:53 57.221550 29.337313 298 33805ft 463kts
10-Jun-17 02:54 57.303150 29.105769 298 33806ft 463kts
10-Jun-17 02:55 57.361286 28.939576 298 33807ft 463kts
10-Jun-17 02:56 57.430849 28.739187 298 33806ft 462kts
10-Jun-17 02:57 57.511296 28.505328 298 33806ft 462kts
10-Jun-17 02:58 57.568534 28.337520 297 33807ft 462kts
10-Jun-17 02:59 57.636437 28.136901 297 33806ft 462kts
10-Jun-17 03:00 57.715915 27.900259 297 33806ft 461kts
10-Jun-17 03:01 57.772138 27.731415 298 33805ft 461kts
10-Jun-17 03:02 57.846650 27.533537 315 33823ft 481kts
10-Jun-17 03:03 57.944263 27.364335 315 33831ft 479kts
10-Jun-17 03:04 58.041710 27.195999 314 33960ft 480kts
10-Jun-17 03:05 58.139095 27.026862 314 34096ft 479kts
10-Jun-17 03:06 58.236636 26.856024 314 34102ft 479kts
10-Jun-17 03:07 58.334130 26.683830 314 34069ft 481kts
10-Jun-17 03:08 58.431547 26.510453 314 34084ft 480kts
10-Jun-17 03:09 58.528091 26.337246 313 34076ft 480kts
10-Jun-17 03:10 58.624463 26.162606 313 34074ft 480kts
10-Jun-17 03:11 58.720416 25.987389 313 34078ft 480kts
10-Jun-17 03:12 58.816672 25.810416 313 34098ft 479kts
10-Jun-17 03:13 58.912816 25.632199 313 34096ft 480kts
10-Jun-17 03:14 59.014541 25.465240 318 34102ft 482kts
10-Jun-17 03:15 59.117712 25.304023 318 34107ft 482kts
10-Jun-17 03:16 59.221780 25.140307 318 34102ft 482kts
10-Jun-17 03:17 59.325566 24.975606 318 34102ft 482kts
10-Jun-17 03:18 59.432527 24.819304 330 34116ft 487kts
10-Jun-17 03:19 59.553147 24.698693 331 34101ft 487kts
10-Jun-17 03:20 59.674029 24.578356 331 34103ft 488kts
10-Jun-17 03:21 59.792659 24.453637 318 34096ft 483kts
10-Jun-17 03:22 59.882865 24.262260 308 34216ft 478kts
10-Jun-17 03:23 59.969889 24.063372 308 34212ft 477kts
10-Jun-17 03:24 60.056481 23.863236 308 34074ft 478kts
10-Jun-17 03:25 60.142466 23.663008 308 34080ft 479kts
10-Jun-17 03:26 60.228258 23.461333 307 34106ft 464kts
10-Jun-17 03:27 60.311673 23.263225 306 34107ft 468kts
10-Jun-17 03:28 60.395174 23.063315 306 34099ft 468kts
10-Jun-17 03:29 60.478683 22.861677 306 34104ft 468kts
10-Jun-17 03:30 60.561640 22.659595 306 34105ft 468kts
10-Jun-17 03:31 60.644296 22.456462 306 34102ft 468kts
10-Jun-17 03:32 60.726905 22.251522 306 34104ft 468kts
10-Jun-17 03:33 60.808596 22.047887 306 34104ft 468kts
10-Jun-17 03:34 60.891310 21.840841 305 34104ft 473kts
10-Jun-17 03:35 60.973968 21.632030 305 34106ft 472kts
10-Jun-17 03:36 61.056439 21.421811 305 34103ft 472kts
10-Jun-17 03:37 61.135886 21.217640 304 34104ft 471kts
10-Jun-17 03:38 61.217510 21.005844 304 34104ft 471kts
10-Jun-17 03:39 61.299027 20.792283 304 34101ft 473kts
10-Jun-17 03:40 61.379857 20.578553 304 34107ft 471kts
10-Jun-17 03:41 61.460629 20.362972 304 34103ft 471kts
10-Jun-17 03:42 61.540528 20.147573 303 34102ft 471kts
10-Jun-17 03:43 61.620520 19.930003 303 34105ft 471kts
10-Jun-17 03:44 61.699942 19.711924 303 34104ft 471kts
10-Jun-17 03:45 61.771058 19.485035 290 34108ft 463kts
10-Jun-17 03:46 61.819919 19.235870 288 34108ft 461kts
10-Jun-17 03:47 61.867373 18.983982 288 34101ft 463kts
10-Jun-17 03:48 61.914480 18.730344 288 34104ft 462kts
10-Jun-17 03:49 61.961089 18.476102 288 34105ft 462kts
10-Jun-17 03:50 62.006571 18.224639 287 34104ft 462kts
10-Jun-17 03:51 62.052158 17.969350 287 34104ft 462kts
10-Jun-17 03:52 62.097239 17.713496 287 34103ft 461kts
10-Jun-17 03:53 62.141747 17.458274 287 34103ft 461kts
10-Jun-17 03:54 62.185657 17.202159 286 34104ft 461kts
10-Jun-17 03:55 62.229142 16.945074 286 34103ft 461kts
10-Jun-17 03:56 62.272365 16.685964 286 34103ft 461kts
10-Jun-17 03:57 62.314995 16.426781 286 34103ft 461kts
10-Jun-17 03:58 62.356705 16.169457 285 34102ft 460kts
10-Jun-17 03:59 62.398356 15.908908 285 34103ft 460kts
10-Jun-17 04:00 62.439486 15.647854 285 34104ft 460kts
10-Jun-17 04:01 62.479989 15.387011 285 34029ft 460kts
10-Jun-17 04:02 62.519825 15.126460 284 34022ft 460kts
10-Jun-17 04:03 62.559520 14.863052 284 34021ft 460kts
10-Jun-17 04:04 62.598647 14.599437 284 34022ft 459kts
10-Jun-17 04:05 62.636815 14.338289 284 34023ft 460kts
10-Jun-17 04:06 62.674770 14.074475 284 34023ft 459kts
10-Jun-17 04:07 62.712376 13.809045 284 34022ft 459kts
10-Jun-17 04:08 62.749087 13.545777 284 34023ft 459kts
10-Jun-17 04:09 62.785362 13.281308 283 34022ft 458kts
10-Jun-17 04:10 62.821315 13.014994 283 34023ft 458kts
10-Jun-17 04:11 62.856769 12.747991 283 34022ft 458kts
10-Jun-17 04:12 62.891671 12.480693 283 33959ft 458kts
10-Jun-17 04:13 62.925704 12.215485 282 33942ft 458kts
10-Jun-17 04:14 62.975059 11.959584 292 33940ft 462kts
10-Jun-17 04:15 63.031995 11.706199 293 33946ft 462kts
10-Jun-17 04:16 63.088474 11.452601 293 33942ft 461kts
10-Jun-17 04:17 63.142923 11.205773 292 33941ft 461kts
10-Jun-17 04:18 63.198459 10.950551 292 33942ft 460kts
10-Jun-17 04:19 63.253293 10.695438 292 33941ft 461kts
10-Jun-17 04:20 63.307820 10.438624 292 33941ft 460kts
10-Jun-17 04:21 63.361470 10.182731 291 33941ft 460kts
10-Jun-17 04:22 63.414986 9.924375 291 33942ft 459kts
10-Jun-17 04:23 63.467884 9.665854 291 33941ft 459kts
10-Jun-17 04:24 63.520479 9.405523 291 33942ft 459kts
10-Jun-17 04:25 63.572125 9.146528 290 33941ft 458kts
10-Jun-17 04:26 63.623633 8.885022 290 33940ft 458kts
10-Jun-17 04:27 63.674580 8.623002 290 33941ft 458kts
10-Jun-17 04:28 63.725021 8.360198 290 33942ft 458kts
10-Jun-17 04:29 63.774842 8.097052 289 33942ft 457kts
10-Jun-17 04:30 63.824191 7.833096 289 33942ft 457kts
10-Jun-17 04:31 63.873239 7.567212 289 33941ft 457kts
10-Jun-17 04:32 63.921601 7.301395 289 33941ft 456kts
10-Jun-17 04:33 63.969445 7.034894 289 33942ft 456kts
10-Jun-17 04:34 64.016845 6.767249 289 33942ft 456kts
10-Jun-17 04:35 64.063697 6.498983 289 33941ft 455kts
10-Jun-17 04:36 64.109870 6.231060 288 33940ft 455kts
10-Jun-17 04:37 64.155721 5.961706 288 33941ft 455kts
10-Jun-17 04:38 64.201132 5.690491 288 33942ft 455kts
10-Jun-17 04:39 64.245778 5.419993 288 33941ft 455kts
10-Jun-17 04:40 64.289602 5.148502 287 33940ft 454kts
10-Jun-17 04:41 64.332704 4.876132 287 33941ft 454kts
10-Jun-17 04:42 64.375716 4.600669 286 33934ft 464kts
10-Jun-17 04:43 64.419806 4.312724 286 33947ft 488kts
10-Jun-17 04:44 64.464781 4.014858 286 33942ft 488kts
10-Jun-17 04:45 64.508962 3.717250 286 33941ft 490kts
10-Jun-17 04:46 64.552699 3.417603 286 33941ft 490kts
10-Jun-17 04:47 64.595708 3.117723 285 33942ft 489kts
10-Jun-17 04:48 64.638191 2.816422 285 33941ft 490kts
10-Jun-17 04:49 64.680000 2.514601 285 33942ft 490kts
10-Jun-17 04:50 64.721122 2.212284 284 33943ft 490kts
10-Jun-17 04:51 64.761713 1.908488 284 33942ft 490kts
10-Jun-17 04:52 64.801715 1.603525 284 33941ft 490kts
10-Jun-17 04:53 64.840587 1.301599 283 33942ft 490kts
10-Jun-17 04:54 64.879232 0.995626 283 33943ft 490kts
10-Jun-17 04:55 64.917386 0.687746 283 33942ft 490kts
10-Jun-17 04:56 64.954751 0.380253 283 33942ft 490kts
10-Jun-17 04:57 64.991424 0.072004 282 33943ft 489kts
10-Jun-17 04:58 65.007738 -0.243790 272 33941ft 485kts
10-Jun-17 04:59 65.017691 -0.562088 271 33939ft 485kts
10-Jun-17 05:00 65.026808 -0.880254 271 33943ft 485kts
10-Jun-17 05:01 65.035228 -1.198239 271 33943ft 485kts
10-Jun-17 05:02 65.042977 -1.516335 271 33941ft 485kts
10-Jun-17 05:03 65.050059 -1.834968 270 33942ft 485kts
10-Jun-17 05:04 65.056456 -2.153731 270 33944ft 485kts
10-Jun-17 05:05 65.062160 -2.471675 270 33941ft 485kts
10-Jun-17 05:06 65.067204 -2.790391 269 33941ft 484kts
10-Jun-17 05:07 65.071562 -3.109161 269 33942ft 485kts
10-Jun-17 05:08 65.075246 -3.428214 269 33942ft 485kts
10-Jun-17 05:09 65.078258 -3.747455 268 33942ft 484kts
10-Jun-17 05:10 65.080590 -4.066167 268 33943ft 485kts
10-Jun-17 05:11 65.082223 -4.385011 268 33942ft 485kts
10-Jun-17 05:12 65.083195 -4.704038 267 33941ft 485kts
10-Jun-17 05:13 65.083484 -5.023402 267 33943ft 484kts
10-Jun-17 05:14 65.083095 -5.341644 267 33942ft 484kts
10-Jun-17 05:15 65.082030 -5.660408 266 33910ft 486kts
10-Jun-17 05:16 65.080282 -5.980004 266 33825ft 485kts
10-Jun-17 05:17 65.077874 -6.299064 266 33837ft 484kts
10-Jun-17 05:18 65.074752 -6.618012 266 33836ft 485kts
10-Jun-17 05:19 65.070988 -6.935904 265 33832ft 484kts
10-Jun-17 05:20 65.066536 -7.253816 265 33992ft 486kts
10-Jun-17 05:21 65.061417 -7.571773 265 33997ft 484kts
10-Jun-17 05:22 65.055614 -7.890315 264 33998ft 483kts
10-Jun-17 05:23 65.049139 -8.208070 264 33995ft 484kts
10-Jun-17 05:24 65.041993 -8.525513 264 33995ft 484kts
10-Jun-17 05:25 65.034297 -8.838459 263 33994ft 483kts
10-Jun-17 05:26 65.025808 -9.155823 263 33995ft 484kts
10-Jun-17 05:27 65.016665 -9.472366 263 33997ft 484kts
10-Jun-17 05:28 65.006839 -9.789448 262 33995ft 483kts
10-Jun-17 05:29 65.003263 -10.104048 273 34000ft 487kts
10-Jun-17 05:30 65.013508 -10.423321 272 34002ft 487kts
10-Jun-17 05:31 65.022948 -10.742426 271 33993ft 487kts
10-Jun-17 05:32 65.031696 -11.061562 271 33993ft 487kts
10-Jun-17 05:33 65.039740 -11.379984 271 33997ft 487kts
10-Jun-17 05:34 65.046904 -11.689161 270 33996ft 487kts
10-Jun-17 05:35 65.053634 -12.008963 270 33996ft 487kts
10-Jun-17 05:36 65.059671 -12.328260 270 33996ft 487kts
10-Jun-17 05:37 65.065026 -12.647639 270 33997ft 487kts
10-Jun-17 05:38 65.069691 -12.966208 269 33997ft 486kts
10-Jun-17 05:39 65.073697 -13.286406 269 33995ft 487kts
10-Jun-17 05:40 65.077008 -13.606422 269 33997ft 487kts
10-Jun-17 05:41 65.079639 -13.925786 268 33996ft 486kts
10-Jun-17 05:42 65.081585 -14.244920 268 33996ft 486kts
10-Jun-17 05:43 65.082855 -14.565612 268 33996ft 487kts
10-Jun-17 05:44 65.083443 -14.884002 267 33996ft 486kts
10-Jun-17 05:45 65.083346 -15.204554 267 33996ft 486kts
10-Jun-17 05:46 65.082563 -15.524647 267 33997ft 486kts
10-Jun-17 05:47 65.081098 -15.843298 266 33993ft 486kts
10-Jun-17 05:48 65.078970 -16.163987 266 33996ft 486kts
10-Jun-17 05:49 65.076146 -16.483409 266 33997ft 486kts
10-Jun-17 05:50 65.072682 -16.800177 265 33996ft 486kts
10-Jun-17 05:51 65.068491 -17.120297 265 33996ft 486kts
10-Jun-17 05:52 65.063628 -17.439694 265 33997ft 486kts
10-Jun-17 05:53 65.058109 -17.756925 265 33997ft 486kts
10-Jun-17 05:54 65.051908 -18.076226 264 33995ft 486kts
10-Jun-17 05:55 65.044990 -18.396027 264 33996ft 486kts
10-Jun-17 05:56 65.037559 -18.709065 264 33996ft 486kts
10-Jun-17 05:57 65.029314 -19.027644 264 33997ft 486kts
10-Jun-17 05:58 65.020371 -19.346878 264 33996ft 486kts
10-Jun-17 05:59 65.010785 -19.664016 263 33998ft 487kts
10-Jun-17 06:00 65.000314 -19.980083 261 33994ft 485kts
10-Jun-17 06:01 64.980925 -20.294582 259 33996ft 484kts
10-Jun-17 06:02 64.960040 -20.608862 259 33962ft 485kts
10-Jun-17 06:03 64.942303 -20.867736 258 33971ft 484kts
10-Jun-17 06:04 64.916467 -21.232818 258 33971ft 484kts
10-Jun-17 06:05 64.893535 -21.545394 258 33967ft 486kts
10-Jun-17 06:06 64.874058 -21.805377 257 33970ft 486kts
10-Jun-17 06:07 64.845748 -22.170942 257 33969ft 487kts
10-Jun-17 06:08 64.820864 -22.482490 257 33969ft 487kts
10-Jun-17 06:09 64.795285 -22.794188 256 33969ft 487kts
10-Jun-17 06:10 64.773527 -23.052653 256 33968ft 487kts
10-Jun-17 06:11 64.746755 -23.363067 256 33969ft 487kts
10-Jun-17 06:12 64.714686 -23.724735 255 33968ft 487kts
10-Jun-17 06:13 64.686484 -24.034185 255 33968ft 487kts
10-Jun-17 06:14 64.662627 -24.290004 255 33968ft 487kts
10-Jun-17 06:15 64.628327 -24.649085 255 33969ft 487kts
10-Jun-17 06:16 64.603300 -24.905111 254 33969ft 486kts
10-Jun-17 06:17 64.572758 -25.210805 254 33969ft 486kts
10-Jun-17 06:18 64.541593 -25.515712 254 33969ft 486kts
10-Jun-17 06:19 64.509871 -25.819444 253 33967ft 485kts
10-Jun-17 06:20 64.477518 -26.122309 253 33968ft 485kts
10-Jun-17 06:21 64.444541 -26.424511 253 33968ft 485kts
10-Jun-17 06:22 64.410864 -26.726829 252 33968ft 484kts
10-Jun-17 06:23 64.376760 -27.026621 252 33969ft 484kts
10-Jun-17 06:24 64.341943 -27.326507 252 33969ft 484kts
10-Jun-17 06:25 64.306609 -27.624848 252 33968ft 484kts
10-Jun-17 06:26 64.270679 -27.922498 251 33968ft 483kts
10-Jun-17 06:27 64.234119 -28.219451 251 33969ft 482kts
10-Jun-17 06:28 64.197026 -28.515049 251 33968ft 482kts
10-Jun-17 06:29 64.159998 -28.804862 250 33968ft 482kts
10-Jun-17 06:30 64.121693 -29.099135 250 33969ft 482kts
10-Jun-17 06:31 64.082946 -29.391467 250 33968ft 481kts
10-Jun-17 06:32 64.043613 -29.683029 249 33969ft 481kts
10-Jun-17 06:33 64.003967 -29.971906 249 33967ft 480kts
10-Jun-17 06:34 63.982733 -30.272584 259 33967ft 484kts
10-Jun-17 06:35 63.962932 -30.574580 258 34092ft 482kts
10-Jun-17 06:36 63.942558 -30.875332 258 34099ft 480kts
10-Jun-17 06:37 63.921566 -31.175392 257 34103ft 480kts
10-Jun-17 06:38 63.900021 -31.474092 257 34104ft 480kts
10-Jun-17 06:39 63.877722 -31.772570 257 34104ft 479kts
10-Jun-17 06:40 63.854994 -32.069719 256 34104ft 479kts
10-Jun-17 06:41 63.831654 -32.366442 256 34104ft 479kts
10-Jun-17 06:42 63.807711 -32.662587 256 34103ft 478kts
10-Jun-17 06:43 63.783262 -32.957289 255 34104ft 478kts
10-Jun-17 06:44 63.758238 -33.250985 255 34105ft 477kts
10-Jun-17 06:45 63.732590 -33.544464 255 34105ft 477kts
10-Jun-17 06:46 63.706462 -33.836317 254 34103ft 476kts
10-Jun-17 06:47 63.679666 -34.128316 254 34104ft 475kts
10-Jun-17 06:48 63.652383 -34.418663 254 34105ft 475kts
10-Jun-17 06:49 63.624456 -34.709087 254 34103ft 474kts
10-Jun-17 06:50 63.596085 -34.997638 253 34103ft 473kts
10-Jun-17 06:51 63.567115 -35.285667 253 34104ft 473kts
10-Jun-17 06:52 63.537633 -35.572487 253 34104ft 473kts
10-Jun-17 06:53 63.507699 -35.857749 253 34104ft 472kts
10-Jun-17 06:54 63.477132 -36.142884 253 34103ft 472kts
10-Jun-17 06:55 63.445997 -36.427415 252 34103ft 471kts
10-Jun-17 06:56 63.414377 -36.710659 252 34102ft 470kts
10-Jun-17 06:57 63.383075 -36.985707 252 34106ft 452kts
10-Jun-17 06:58 63.351444 -37.258431 252 34102ft 454kts
10-Jun-17 06:59 63.319251 -37.530787 252 34109ft 453kts
10-Jun-17 07:00 63.286816 -37.800442 251 34099ft 454kts
10-Jun-17 07:01 63.253718 -38.070631 251 34103ft 455kts
10-Jun-17 07:02 63.220006 -38.340992 251 34104ft 455kts
10-Jun-17 07:03 63.185835 -38.610300 251 34103ft 455kts
10-Jun-17 07:04 63.151810 -38.874083 250 34103ft 454kts
10-Jun-17 07:05 63.116603 -39.142430 250 34109ft 453kts
10-Jun-17 07:06 63.081003 -39.409126 250 34103ft 455kts
10-Jun-17 07:07 63.045012 -39.674425 249 34100ft 455kts
10-Jun-17 07:08 63.008443 -39.939860 249 34103ft 454kts
10-Jun-17 07:09 62.968999 -40.202078 248 34104ft 453kts
10-Jun-17 07:10 62.928358 -40.463145 248 34103ft 453kts
10-Jun-17 07:11 62.887302 -40.722641 247 34020ft 453kts
10-Jun-17 07:12 62.845751 -40.981727 247 33823ft 447kts
10-Jun-17 07:13 62.803572 -41.241055 247 33831ft 453kts
10-Jun-17 07:14 62.760900 -41.499833 247 33836ft 454kts
10-Jun-17 07:15 62.717868 -41.757309 246 33834ft 453kts
10-Jun-17 07:16 62.674244 -42.014731 246 33833ft 453kts
10-Jun-17 07:17 62.630176 -42.271165 246 33834ft 453kts
10-Jun-17 07:18 62.585674 -42.526646 246 33833ft 453kts
10-Jun-17 07:19 62.540742 -42.781280 245 33834ft 453kts
10-Jun-17 07:20 62.495439 -43.034567 245 33833ft 453kts
10-Jun-17 07:21 62.449709 -43.286844 245 33839ft 451kts
10-Jun-17 07:22 62.403370 -43.539272 245 33836ft 451kts
10-Jun-17 07:23 62.356709 -43.790246 244 33832ft 453kts
10-Jun-17 07:24 62.309468 -44.041058 244 33832ft 453kts
10-Jun-17 07:25 62.261805 -44.290904 244 33833ft 453kts
10-Jun-17 07:26 62.213560 -44.540640 244 33833ft 453kts
10-Jun-17 07:27 62.165050 -44.788770 244 33833ft 453kts
10-Jun-17 07:28 62.116176 -45.035626 244 33833ft 453kts
10-Jun-17 07:29 62.066623 -45.282850 244 33832ft 453kts
10-Jun-17 07:30 62.016812 -45.528368 244 33833ft 453kts
10-Jun-17 07:31 61.966595 -45.773047 243 33833ft 452kts
10-Jun-17 07:32 61.915726 -46.017912 243 33833ft 453kts
10-Jun-17 07:33 61.864697 -46.260022 243 33832ft 453kts
10-Jun-17 07:34 61.813112 -46.502466 243 33834ft 453kts
10-Jun-17 07:35 61.761194 -46.743804 242 33834ft 453kts
10-Jun-17 07:36 61.708771 -46.984716 242 33833ft 453kts
10-Jun-17 07:37 61.656203 -47.223477 242 33834ft 453kts
10-Jun-17 07:38 61.602747 -47.463539 242 33834ft 453kts
10-Jun-17 07:39 61.549319 -47.700823 241 33834ft 453kts
10-Jun-17 07:40 61.495193 -47.938651 241 33833ft 453kts
10-Jun-17 07:41 61.440494 -48.176214 241 33833ft 453kts
10-Jun-17 07:42 61.385645 -48.411823 241 33833ft 453kts
10-Jun-17 07:43 61.330161 -48.647571 241 33833ft 453kts
10-Jun-17 07:44 61.275236 -48.878591 240 33833ft 454kts
10-Jun-17 07:45 61.218961 -49.112625 240 33832ft 454kts
10-Jun-17 07:46 61.162296 -49.345768 240 33832ft 454kts
10-Jun-17 07:47 61.105208 -49.578169 240 33833ft 454kts
10-Jun-17 07:48 61.047591 -49.810393 239 33832ft 454kts
10-Jun-17 07:49 60.987066 -50.035620 233 33834ft 451kts
10-Jun-17 07:50 60.915840 -50.248142 232 33833ft 451kts
10-Jun-17 07:51 60.844706 -50.455520 232 33833ft 452kts
10-Jun-17 07:52 60.772173 -50.665283 231 33833ft 452kts
10-Jun-17 07:53 60.699550 -50.873619 231 33833ft 452kts
10-Jun-17 07:54 60.626266 -51.081852 231 33834ft 452kts
10-Jun-17 07:55 60.552741 -51.288861 231 33834ft 452kts
10-Jun-17 07:56 60.479112 -51.494357 231 33833ft 452kts
10-Jun-17 07:57 60.404971 -51.699504 231 33833ft 453kts
10-Jun-17 07:58 60.330227 -51.904570 231 33833ft 453kts
10-Jun-17 07:59 60.255610 -52.107402 231 33832ft 453kts
10-Jun-17 08:00 60.180239 -52.310511 231 33832ft 453kts
10-Jun-17 08:01 60.104740 -52.512191 231 33832ft 453kts
10-Jun-17 08:02 60.028757 -52.713482 230 33839ft 454kts
10-Jun-17 08:03 59.952520 -52.913624 230 34805ft 452kts
10-Jun-17 08:04 59.876306 -53.111863 231 35654ft 451kts
10-Jun-17 08:05 59.799982 -53.308737 231 36366ft 451kts
10-Jun-17 08:06 59.723134 -53.505468 231 36936ft 452kts
10-Jun-17 08:07 59.646054 -53.701179 231 37440ft 453kts
10-Jun-17 08:08 59.568317 -53.896973 231 37847ft 452kts
10-Jun-17 08:09 59.490396 -54.091498 231 37831ft 451kts
10-Jun-17 08:10 59.412574 -54.284186 231 37695ft 454kts
10-Jun-17 08:11 59.334912 -54.474900 231 37400ft 447kts
10-Jun-17 08:12 59.256874 -54.664942 230 37399ft 449kts
10-Jun-17 08:13 59.178433 -54.854563 230 37401ft 450kts
10-Jun-17 08:14 59.099984 -55.042562 230 37401ft 449kts
10-Jun-17 08:15 59.021001 -55.230317 230 37400ft 449kts
10-Jun-17 08:16 58.941723 -55.417266 230 37430ft 450kts
10-Jun-17 08:17 58.862183 -55.603064 230 37427ft 450kts
10-Jun-17 08:18 58.782392 -55.788325 229 37428ft 450kts
10-Jun-17 08:19 58.702360 -55.972623 229 37429ft 450kts
10-Jun-17 08:20 58.621969 -56.156285 229 37427ft 450kts
10-Jun-17 08:21 58.541241 -56.339272 229 37427ft 450kts
10-Jun-17 08:22 58.460330 -56.521253 229 37428ft 450kts
10-Jun-17 08:23 58.379314 -56.702103 228 37429ft 450kts
10-Jun-17 08:24 58.297805 -56.882692 228 37428ft 450kts
10-Jun-17 08:25 58.216104 -57.062230 228 37427ft 450kts
10-Jun-17 08:26 58.134161 -57.240923 228 37427ft 451kts
10-Jun-17 08:27 58.051700 -57.419375 228 37428ft 451kts
10-Jun-17 08:28 57.969348 -57.596237 228 37428ft 451kts
10-Jun-17 08:29 57.886541 -57.772804 227 37429ft 451kts
10-Jun-17 08:30 57.803419 -57.948411 227 37428ft 451kts
10-Jun-17 08:31 57.720255 -58.123012 227 37428ft 451kts
10-Jun-17 08:32 57.637875 -58.294478 229 37427ft 425kts
10-Jun-17 08:33 57.559015 -58.457852 228 37429ft 430kts
10-Jun-17 08:34 57.479231 -58.621783 228 37428ft 427kts
10-Jun-17 08:35 57.401173 -58.781184 228 37428ft 428kts
10-Jun-17 08:36 57.321242 -58.943244 228 37431ft 427kts
10-Jun-17 08:37 57.240786 -59.105085 228 37428ft 427kts
10-Jun-17 08:38 57.177249 -59.285522 243 37428ft 429kts
10-Jun-17 08:39 57.126390 -59.483547 244 37423ft 428kts
10-Jun-17 08:40 57.075790 -59.680733 243 37430ft 428kts
10-Jun-17 08:41 57.024841 -59.877749 243 37428ft 428kts
10-Jun-17 08:42 56.973802 -60.073278 243 37432ft 429kts
10-Jun-17 08:43 56.922061 -60.269717 243 37425ft 427kts
10-Jun-17 08:44 56.870194 -60.464458 243 37428ft 428kts
10-Jun-17 08:45 56.818223 -60.658320 242 37429ft 428kts
10-Jun-17 08:46 56.765790 -60.852478 242 37428ft 427kts
10-Jun-17 08:47 56.713014 -61.046113 242 37428ft 427kts
10-Jun-17 08:48 56.660100 -61.238606 242 37428ft 428kts
10-Jun-17 08:49 56.606719 -61.431175 242 37449ft 427kts
10-Jun-17 08:50 56.552961 -61.623484 242 37508ft 428kts
10-Jun-17 08:51 56.489455 -61.801623 234 37509ft 428kts
10-Jun-17 08:52 56.419724 -61.974980 233 37509ft 427kts
10-Jun-17 08:53 56.349705 -62.147228 233 37509ft 427kts
10-Jun-17 08:54 56.279144 -62.319549 233 37508ft 427kts
10-Jun-17 08:55 56.208738 -62.490286 233 37508ft 427kts
10-Jun-17 08:56 56.137964 -62.660715 233 37509ft 427kts
10-Jun-17 08:57 56.066886 -62.830819 233 37508ft 427kts
10-Jun-17 08:58 55.995615 -63.000074 233 37508ft 427kts
10-Jun-17 08:59 55.924207 -63.168448 233 37508ft 427kts
10-Jun-17 09:00 55.852263 -63.336714 232 37508ft 436kts
10-Jun-17 09:01 55.777994 -63.509352 232 37510ft 439kts
10-Jun-17 09:02 55.703850 -63.680587 232 37510ft 440kts
10-Jun-17 09:03 55.629520 -63.851191 232 37509ft 440kts
10-Jun-17 09:04 55.554580 -64.021866 232 37509ft 439kts
10-Jun-17 09:05 55.479736 -64.191134 232 37509ft 440kts
10-Jun-17 09:06 55.404441 -64.360250 232 37509ft 440kts
10-Jun-17 09:07 55.328912 -64.528703 232 37640ft 440kts
10-Jun-17 09:08 55.253508 -64.695805 231 37670ft 440kts
10-Jun-17 09:09 55.177675 -64.862770 231 37672ft 440kts
10-Jun-17 09:10 55.101509 -65.029224 231 37671ft 440kts
10-Jun-17 09:11 55.025039 -65.195211 231 37670ft 440kts
10-Jun-17 09:12 54.948248 -65.360771 231 37670ft 440kts
10-Jun-17 09:13 54.871915 -65.524036 231 37671ft 440kts
10-Jun-17 09:14 54.807749 -65.660495 230 37672ft 440kts
10-Jun-17 09:15 54.730381 -65.824311 230 37671ft 440kts
10-Jun-17 09:16 54.640046 -66.014053 230 37671ft 440kts
10-Jun-17 09:17 54.562246 -66.176290 230 37671ft 440kts
10-Jun-17 09:18 54.497241 -66.311028 230 37671ft 440kts
10-Jun-17 09:19 54.406016 -66.498875 230 37671ft 440kts
10-Jun-17 09:20 54.340781 -66.632331 230 37670ft 440kts
10-Jun-17 09:21 54.262557 -66.791540 229 37671ft 440kts
10-Jun-17 09:22 54.170322 -66.977810 229 37671ft 440kts
10-Jun-17 09:23 54.104562 -67.109746 229 37671ft 440kts
10-Jun-17 09:24 54.025288 -67.267861 229 37671ft 440kts
10-Jun-17 09:25 53.945842 -67.425307 229 37670ft 440kts
10-Jun-17 09:26 53.866575 -67.581176 229 37671ft 441kts
10-Jun-17 09:27 53.788171 -67.734635 229 37685ft 440kts
10-Jun-17 09:28 53.707999 -67.890561 229 37725ft 441kts
10-Jun-17 09:29 53.627678 -68.045766 229 37728ft 441kts
10-Jun-17 09:30 53.546941 -68.200794 229 37725ft 441kts
10-Jun-17 09:31 53.466159 -68.354932 229 37724ft 441kts
10-Jun-17 09:32 53.385205 -68.508439 229 37725ft 441kts
10-Jun-17 09:33 53.305494 -68.658660 228 37725ft 441kts
10-Jun-17 09:34 53.224349 -68.810781 228 37725ft 441kts
10-Jun-17 09:35 53.142819 -68.962554 228 37725ft 441kts
10-Jun-17 09:36 53.060938 -69.114039 228 37725ft 441kts
10-Jun-17 09:37 52.978878 -69.264926 228 37724ft 441kts
10-Jun-17 09:38 52.897026 -69.414510 228 37724ft 441kts
10-Jun-17 09:39 52.814449 -69.564237 228 37725ft 441kts
10-Jun-17 09:40 52.732328 -69.712587 227 37725ft 441kts
10-Jun-17 09:41 52.649401 -69.861466 227 37726ft 441kts
10-Jun-17 09:42 52.567572 -70.007442 227 37725ft 441kts
10-Jun-17 09:43 52.484292 -70.155125 227 37725ft 441kts
10-Jun-17 09:44 52.401209 -70.301547 227 37892ft 441kts
10-Jun-17 09:45 52.317479 -70.448281 227 37990ft 442kts
10-Jun-17 09:46 52.233531 -70.594516 227 37996ft 442kts
10-Jun-17 09:47 52.149787 -70.739646 227 37997ft 442kts
10-Jun-17 09:48 52.065769 -70.884300 227 37996ft 442kts
10-Jun-17 09:49 51.981190 -71.029045 227 37994ft 442kts
10-Jun-17 09:50 51.896765 -71.172681 227 37995ft 442kts
10-Jun-17 09:51 51.812183 -71.315503 227 37995ft 442kts
10-Jun-17 09:52 51.727272 -71.458241 228 38000ft 441kts
10-Jun-17 09:53 51.643760 -71.597615 232 37993ft 438kts
10-Jun-17 09:54 51.557730 -71.741109 231 38000ft 454kts
10-Jun-17 09:55 51.470608 -71.885084 231 37997ft 451kts
10-Jun-17 09:56 51.382972 -72.029090 231 37995ft 451kts
10-Jun-17 09:57 51.296778 -72.169920 231 37995ft 452kts
10-Jun-17 09:58 51.209018 -72.312482 231 37996ft 453kts
10-Jun-17 09:59 51.120512 -72.455444 231 38002ft 455kts
10-Jun-17 10:00 51.032108 -72.597364 231 37993ft 453kts
10-Jun-17 10:01 50.943696 -72.738619 230 37996ft 455kts
10-Jun-17 10:02 50.856255 -72.877240 230 37996ft 454kts
10-Jun-17 10:03 50.766806 -73.018374 230 37994ft 454kts
10-Jun-17 10:04 50.677411 -73.158672 230 37995ft 455kts
10-Jun-17 10:05 50.587765 -73.298573 230 37995ft 455kts
10-Jun-17 10:06 50.497812 -73.438131 230 37995ft 455kts
10-Jun-17 10:07 50.407534 -73.577440 230 37992ft 456kts
10-Jun-17 10:08 50.317357 -73.715905 229 37997ft 457kts
10-Jun-17 10:09 50.226601 -73.854387 229 37997ft 458kts
10-Jun-17 10:10 50.135447 -73.992675 229 37996ft 457kts
10-Jun-17 10:11 50.044381 -74.130060 229 37995ft 457kts
10-Jun-17 10:12 49.955211 -74.263831 229 37996ft 459kts
10-Jun-17 10:13 49.863890 -74.399950 229 37993ft 459kts
10-Jun-17 10:14 49.763775 -74.522193 216 37994ft 471kts
10-Jun-17 10:15 49.648755 -74.618900 214 37995ft 472kts
10-Jun-17 10:16 49.536841 -74.710293 213 37990ft 475kts
10-Jun-17 10:17 49.426422 -74.801606 213 37999ft 484kts
10-Jun-17 10:18 49.308076 -74.897595 213 38004ft 486kts
10-Jun-17 10:19 49.189076 -74.992856 213 38003ft 484kts
10-Jun-17 10:20 49.069971 -75.087730 213 38002ft 484kts
10-Jun-17 10:21 48.951002 -75.181990 213 38004ft 484kts
10-Jun-17 10:22 48.832344 -75.275376 213 37994ft 484kts
10-Jun-17 10:23 48.713197 -75.368744 213 37995ft 484kts
10-Jun-17 10:24 48.593652 -75.461938 213 37996ft 484kts
10-Jun-17 10:25 48.474367 -75.554490 212 37983ft 490kts
10-Jun-17 10:26 48.351541 -75.649171 212 38002ft 499kts
10-Jun-17 10:27 48.228788 -75.743446 212 38007ft 499kts
10-Jun-17 10:28 48.105962 -75.837142 212 38005ft 498kts
10-Jun-17 10:29 47.982383 -75.930910 212 38006ft 498kts
10-Jun-17 10:30 47.859934 -76.023261 211 37996ft 499kts
10-Jun-17 10:31 47.736289 -76.116025 212 37997ft 499kts
10-Jun-17 10:32 47.612824 -76.208209 212 37997ft 499kts
10-Jun-17 10:33 47.488666 -76.300368 212 37997ft 499kts
10-Jun-17 10:34 47.365229 -76.391622 212 38002ft 500kts
10-Jun-17 10:35 47.241352 -76.482641 212 37836ft 499kts
10-Jun-17 10:36 47.117641 -76.573095 212 37928ft 499kts
10-Jun-17 10:37 46.994113 -76.662938 211 38002ft 499kts
10-Jun-17 10:38 46.871185 -76.751951 211 37998ft 500kts
10-Jun-17 10:39 46.746731 -76.841445 211 37998ft 500kts
10-Jun-17 10:40 46.622263 -76.930563 211 37998ft 500kts
10-Jun-17 10:41 46.497717 -77.019260 211 37985ft 500kts
10-Jun-17 10:42 46.373044 -77.107641 211 37894ft 500kts
10-Jun-17 10:43 46.248373 -77.195542 211 37893ft 500kts
10-Jun-17 10:44 46.123379 -77.283230 211 37895ft 501kts
10-Jun-17 10:45 45.998453 -77.370425 211 37896ft 500kts
10-Jun-17 10:46 45.875049 -77.456096 211 37888ft 500kts
10-Jun-17 10:47 45.749813 -77.542553 211 37886ft 501kts
10-Jun-17 10:48 45.629500 -77.637239 222 37896ft 492kts
10-Jun-17 10:49 45.518846 -77.750546 221 37675ft 491kts
10-Jun-17 10:50 45.408618 -77.864183 221 34909ft 508kts
10-Jun-17 10:51 45.298473 -77.977602 221 32809ft 504kts
10-Jun-17 10:52 45.189457 -78.089224 221 30746ft 478kts
10-Jun-17 10:53 45.085995 -78.196089 221 28754ft 450kts
10-Jun-17 10:54 44.988213 -78.297651 221 26745ft 426kts
10-Jun-17 10:55 44.895739 -78.393317 220 24740ft 405kts
10-Jun-17 10:56 44.812890 -78.478466 220 22838ft 388kts
10-Jun-17 10:57 44.727876 -78.565699 220 20806ft 373kts
10-Jun-17 10:58 44.645787 -78.649646 220 18778ft 360kts
10-Jun-17 10:59 44.568150 -78.728908 219 16834ft 349kts
10-Jun-17 11:00 44.491052 -78.807217 219 14843ft 337kts
10-Jun-17 11:01 44.417359 -78.881979 220 12853ft 323kts
10-Jun-17 11:02 44.348600 -78.952705 220 11386ft 288kts
10-Jun-17 11:03 44.287590 -79.015347 221 10226ft 259kts
10-Jun-17 11:04 44.235168 -79.076735 231 9171ft 243kts
10-Jun-17 11:05 44.189229 -79.145652 230 8210ft 243kts
10-Jun-17 11:06 44.143874 -79.213939 230 7221ft 241kts
10-Jun-17 11:07 44.090738 -79.269075 201 6257ft 250kts
10-Jun-17 11:08 44.025234 -79.299923 204 5292ft 249kts
10-Jun-17 11:09 43.960207 -79.334102 204 4302ft 251kts
10-Jun-17 11:10 43.898560 -79.369833 204 3313ft 255kts
10-Jun-17 11:11 43.841740 -79.404903 203 3094ft 231kts
10-Jun-17 11:12 43.789455 -79.442737 214 2900ft 205kts
10-Jun-17 11:13 43.750853 -79.493138 223 2625ft 172kts
10-Jun-17 11:14 43.722073 -79.534759 223 1782ft 141kts
10-Jun-17 11:15 43.695256 -79.573687 223 1059ft 138kts
10-Jun-17 11:16 43.670784 -79.609211 229 556ft 66kts
10-Jun-17 11:17 43.670359 -79.615446 41 558ft 21kts
10-Jun-17 11:18 43.675725 -79.610931 354 566ft 0kts

Navigation Log

Ident Type
Flight plan parsing failed, navigation log unavailable